Time;durP1;ratioP1;P1;durP2;ratioP2;P2;SDS_P1;SDS_P2;PMS_P1;PMS_P2;Temp;Humidity;BMP_temperature;BMP_pressure;BME280_temperature;BME280_humidity;BME280_pressure;Samples;Min_cycle;Max_cycle;Signal;HPM_P1;HPM_P2
2021/05/29 00:00:58;;;;;;;6.90;5.35;;;;;;;15.93;81.04;99581.30;1685502;82;21036;-74
2021/05/29 00:03:26;;;;;;;6.58;5.90;;;;;;;15.87;81.17;99580.16;1706074;82;21730;-74
2021/05/29 00:05:52;;;;;;;9.10;5.75;;;;;;;15.83;81.33;99570.87;1692921;82;20995;-73
2021/05/29 00:08:19;;;;;;;8.65;5.87;;;;;;;15.79;81.36;99585.52;1720051;82;20979;-73
2021/05/29 00:10:53;;;;;;;6.95;6.22;;;;;;;15.76;81.43;99581.88;1699360;84;21066;-73
2021/05/29 00:13:20;;;;;;;11.43;6.80;;;;;;;15.71;81.62;99576.23;1696590;82;21532;-73
2021/05/29 00:15:47;;;;;;;7.10;5.80;;;;;;;15.66;81.79;99574.61;1697482;82;21671;-73
2021/05/29 00:18:14;;;;;;;6.90;6.20;;;;;;;15.63;81.88;99570.95;1715815;82;21063;-74
2021/05/29 00:20:42;;;;;;;10.55;5.50;;;;;;;15.59;82.08;99568.29;1707384;82;20967;-74
2021/05/29 00:23:10;;;;;;;7.25;6.25;;;;;;;15.51;82.24;99574.47;1698029;82;21040;-73
2021/05/29 00:25:37;;;;;;;8.03;7.10;;;;;;;15.47;82.35;99579.82;1713541;82;21082;-73
2021/05/29 00:28:04;;;;;;;9.98;7.70;;;;;;;15.43;82.49;99580.65;1709544;82;21561;-74
2021/05/29 00:30:31;;;;;;;8.80;7.90;;;;;;;15.42;82.60;99584.81;1718618;82;21499;-73
2021/05/29 00:32:57;;;;;;;8.70;7.80;;;;;;;15.41;82.66;99575.17;1702330;82;21034;-75
2021/05/29 00:35:24;;;;;;;9.03;7.83;;;;;;;15.41;82.71;99573.34;1691607;83;21106;-73
2021/05/29 00:37:51;;;;;;;11.60;8.35;;;;;;;15.40;82.87;99568.20;1682465;83;21003;-73
2021/05/29 00:40:18;;;;;;;11.88;8.98;;;;;;;15.37;82.98;99566.72;1704624;83;21789;-73
2021/05/29 00:42:44;;;;;;;9.53;8.58;;;;;;;15.35;83.05;99564.73;1708091;82;21067;-73
2021/05/29 00:45:11;;;;;;;9.80;8.80;;;;;;;15.34;83.14;99564.38;1715505;82;21233;-73
2021/05/29 00:47:38;;;;;;;10.23;8.80;;;;;;;15.36;83.25;99561.58;1718696;82;21051;-73
2021/05/29 00:50:12;;;;;;;9.03;8.13;;;;;;;15.37;83.27;99557.91;1711225;82;21075;-73
2021/05/29 00:52:39;;;;;;;9.48;8.58;;;;;;;15.39;83.25;99566.05;1690982;83;21822;-73
2021/05/29 00:55:13;;;;;;;11.15;8.50;;;;;;;15.36;83.25;99562.41;1699344;83;21130;-74
2021/05/29 00:57:46;;;;;;;9.75;8.73;;;;;;;15.36;83.34;99563.73;1718772;83;20968;-73
2021/05/29 01:00:16;;;;;;;11.70;9.05;;;;;;;15.34;83.41;99560.39;1730672;82;21008;-73
2021/05/29 01:02:42;;;;;;;12.80;9.05;;;;;;;15.34;83.53;99561.72;1699366;84;20987;-74
2021/05/29 01:05:10;;;;;;;14.53;9.38;;;;;;;15.35;83.61;99562.08;1691194;83;21839;-74
2021/05/29 01:07:38;;;;;;;16.95;9.63;;;;;;;15.37;83.69;99563.23;1685621;83;21050;-74
2021/05/29 01:10:07;;;;;;;20.52;10.03;;;;;;;15.35;83.82;99563.41;1686476;83;21079;-74
2021/05/29 01:12:33;;;;;;;22.20;10.43;;;;;;;15.35;83.96;99570.56;1720555;82;21059;-73
2021/05/29 01:15:06;;;;;;;47.40;10.70;;;;;;;15.30;84.08;99570.23;1726721;83;20943;-74
2021/05/29 01:17:32;;;;;;;31.93;10.63;;;;;;;15.28;84.25;99565.09;1681219;83;21800;-74
2021/05/29 01:19:58;;;;;;;24.55;10.35;;;;;;;15.27;84.35;99567.42;1669674;84;21007;-74
2021/05/29 01:22:44;;;;;;;39.13;11.68;;;;;;;15.26;84.49;99571.59;1718169;82;21063;-73
2021/05/29 01:25:22;;;;;;;27.73;10.60;;;;;;;15.27;84.61;99574.08;1689875;82;20995;-73
2021/05/29 01:28:18;;;;;;;24.50;10.70;;;;;;;15.29;84.77;99581.37;1725020;83;21521;-74
2021/05/29 01:31:01;;;;;;;14.35;10.43;;;;;;;15.31;84.85;99591.34;1721963;83;21783;-74
2021/05/29 01:33:30;;;;;;;13.48;10.48;;;;;;;15.34;84.94;99613.61;1723655;82;21090;-74
2021/05/29 01:36:01;;;;;;;15.23;11.97;;;;;;;15.38;85.05;99622.09;1685523;83;21043;-74
2021/05/29 01:38:28;;;;;;;13.38;11.83;;;;;;;15.40;85.19;99618.25;1717548;82;21059;-74
2021/05/29 01:41:07;;;;;;;12.28;11.05;;;;;;;15.43;85.30;99605.92;1715359;82;21074;-74
2021/05/29 01:43:40;;;;;;;11.65;10.53;;;;;;;15.46;85.37;99624.73;1687756;83;21775;-74
2021/05/29 01:46:08;;;;;;;13.03;11.60;;;;;;;15.47;85.47;99618.41;1700837;83;21421;-74
2021/05/29 01:48:43;;;;;;;13.80;12.35;;;;;;;15.49;85.53;99600.94;1727891;82;21036;-75
2021/05/29 01:51:08;;;;;;;12.45;11.18;;;;;;;15.52;85.59;99609.90;1724568;82;21114;-75
2021/05/29 01:53:34;;;;;;;15.08;11.75;;;;;;;15.54;85.58;99624.72;1707992;83;21113;-74
2021/05/29 01:56:01;;;;;;;13.38;11.35;;;;;;;15.53;85.66;99616.88;1697636;83;21742;-73
2021/05/29 01:58:28;;;;;;;11.88;10.68;;;;;;;15.55;85.66;99621.05;1722210;82;21103;-73
2021/05/29 02:00:55;;;;;;;14.68;12.55;;;;;;;15.57;85.70;99626.20;1728347;82;21055;-73
2021/05/29 02:03:21;;;;;;;13.90;12.30;;;;;;;15.56;85.72;99611.23;1730357;82;21011;-74
2021/05/29 02:05:48;;;;;;;13.70;12.30;;;;;;;15.56;85.79;99609.90;1719484;83;20975;-74
2021/05/29 02:08:15;;;;;;;13.62;11.95;;;;;;;15.57;85.80;99615.55;1713073;83;21783;-74
2021/05/29 02:10:44;;;;;;;13.25;11.90;;;;;;;15.60;85.85;99617.38;1711538;82;21340;-73
2021/05/29 02:13:26;;;;;;;14.20;11.85;;;;;;;15.65;85.87;99612.89;1726575;82;20940;-73
2021/05/29 02:15:52;;;;;;;12.73;11.43;;;;;;;15.69;85.88;99615.02;1702879;82;20991;-74
2021/05/29 02:18:19;;;;;;;13.25;11.93;;;;;;;15.72;85.82;99617.33;1723556;83;21000;-73
2021/05/29 02:20:52;;;;;;;13.10;11.57;;;;;;;15.78;85.79;99618.98;1726403;82;22186;-76
2021/05/29 02:23:23;;;;;;;12.53;11.20;;;;;;;15.82;85.74;99614.95;1719823;82;21082;-74
2021/05/29 02:25:51;;;;;;;13.00;11.30;;;;;;;15.84;85.65;99613.80;1715697;83;21456;-71
2021/05/29 02:28:18;;;;;;;13.68;11.12;;;;;;;15.84;85.60;99615.13;1706127;83;21070;-72
2021/05/29 02:30:45;;;;;;;13.08;11.43;;;;;;;15.86;85.56;99611.78;1687562;83;20983;-70
2021/05/29 02:33:11;;;;;;;11.88;10.65;;;;;;;15.86;85.49;99612.29;1706502;83;21747;-71
2021/05/29 02:35:38;;;;;;;14.63;11.78;;;;;;;15.86;85.42;99613.63;1699384;83;21063;-79
2021/05/29 02:38:06;;;;;;;15.70;12.07;;;;;;;15.86;85.37;99613.12;1697661;83;21098;-75
2021/05/29 02:40:32;;;;;;;13.50;12.20;;;;;;;15.87;85.30;99613.44;1699529;82;21059;-76
2021/05/29 02:42:59;;;;;;;13.98;12.53;;;;;;;15.90;85.25;99613.08;1711630;82;21039;-76
2021/05/29 02:45:26;;;;;;;16.32;13.32;;;;;;;15.87;85.15;99602.79;1696986;84;22525;-72
2021/05/29 02:47:54;;;;;;;14.13;12.10;;;;;;;15.84;85.09;99601.81;1676182;83;21110;-79
2021/05/29 02:50:22;;;;;;;17.98;14.15;;;;;;;15.82;85.05;99602.47;1670273;83;20978;-74
2021/05/29 02:52:49;;;;;;;16.02;14.33;;;;;;;15.80;85.01;99600.99;1645623;83;21094;-73
2021/05/29 02:55:22;;;;;;;17.17;15.30;;;;;;;15.78;85.04;99599.84;1673421;83;21103;-71
2021/05/29 02:57:44;;;;;;;17.02;15.23;;;;;;;15.75;85.05;99593.55;1698089;82;22292;-74
2021/05/29 03:00:12;;;;;;;20.60;16.25;;;;;;;15.77;85.06;99603.51;1675574;83;21517;-83
2021/05/29 03:02:39;;;;;;;23.87;16.80;;;;;;;15.79;85.06;99604.66;1694923;82;21133;-73
2021/05/29 03:05:07;;;;;;;18.82;16.82;;;;;;;15.82;85.05;99604.30;1695943;83;21067;-74
2021/05/29 03:07:36;;;;;;;21.35;16.52;;;;;;;15.85;85.03;99605.30;1706772;82;20952;-75
2021/05/29 03:10:06;;;;;;;18.92;16.60;;;;;;;15.88;85.03;99593.80;1701280;82;21771;-71
2021/05/29 03:12:40;;;;;;;18.95;16.93;;;;;;;15.93;85.00;99603.94;1692663;83;21502;-73
2021/05/29 03:15:09;;;;;;;;;;;;;;;15.94;84.98;99599.77;1714305;82;21508;-70
2021/05/29 03:17:35;;;;;;;21.33;17.17;;;;;;;15.96;84.90;99596.41;1702641;83;20663;-70
2021/05/29 03:20:05;;;;;;;18.65;16.75;;;;;;;15.98;84.89;99602.89;1697238;82;20979;-69
2021/05/29 03:22:31;;;;;;;20.55;17.85;;;;;;;16.00;84.84;99599.55;1688445;83;21760;-70
2021/05/29 03:24:58;;;;;;;19.23;17.23;;;;;;;16.00;84.76;99596.88;1694826;82;21071;-72
2021/05/29 03:27:25;;;;;;;19.55;17.45;;;;;;;16.00;84.72;99593.72;1695281;83;21083;-70
2021/05/29 03:29:52;;;;;;;19.02;16.97;;;;;;;15.99;84.64;99589.40;1695573;82;21158;-72
2021/05/29 03:32:18;;;;;;;19.02;17.02;;;;;;;16.00;84.62;99582.23;1701329;83;21081;-69
2021/05/29 03:34:45;;;;;;;20.25;17.17;;;;;;;16.05;84.59;99581.72;1701031;83;21765;-69
2021/05/29 03:37:12;;;;;;;19.62;17.73;;;;;;;16.10;84.60;99575.34;1701636;83;21524;-69
2021/05/29 03:39:39;;;;;;;20.08;17.25;;;;;;;16.15;84.57;99575.16;1697131;83;21573;-69
2021/05/29 03:42:06;;;;;;;18.17;16.37;;;;;;;16.21;84.53;99578.92;1697245;83;21392;-69
2021/05/29 03:44:33;;;;;;;19.12;16.85;;;;;;;16.27;84.47;99575.56;1724777;83;20979;-73
2021/05/29 03:47:01;;;;;;;17.87;16.07;;;;;;;16.28;84.38;99571.89;1672919;85;21783;-69
2021/05/29 03:49:28;;;;;;;17.65;15.88;;;;;;;16.28;84.31;99566.05;1698921;82;21014;-69
2021/05/29 03:51:54;;;;;;;17.37;15.55;;;;;;;16.27;84.20;99563.57;1699533;83;21062;-69
2021/05/29 03:54:22;;;;;;;16.97;15.43;;;;;;;16.23;84.08;99563.11;1701416;84;20999;-69
2021/05/29 03:56:48;;;;;;;15.98;14.47;;;;;;;16.24;84.05;99562.61;1695807;84;21628;-69
2021/05/29 03:59:16;;;;;;;17.95;14.83;;;;;;;16.25;84.03;99562.93;1673152;85;21584;-69
2021/05/29 04:01:43;;;;;;;15.70;14.13;;;;;;;16.20;83.93;99553.30;1673659;83;20979;-70
2021/05/29 04:04:10;;;;;;;15.65;14.15;;;;;;;16.18;83.90;99556.64;1686944;82;21416;-69
2021/05/29 04:06:37;;;;;;;15.13;13.70;;;;;;;16.13;83.83;99557.70;1693041;83;21109;-69
2021/05/29 04:09:05;;;;;;;16.05;14.35;;;;;;;16.08;83.85;99559.55;1723592;83;21468;-69
2021/05/29 04:11:32;;;;;;;15.10;13.62;;;;;;;16.10;83.90;99567.35;1723609;83;21724;-69
2021/05/29 04:13:59;;;;;;;15.45;13.83;;;;;;;16.13;83.98;99562.52;1694644;83;21553;-69
2021/05/29 04:16:25;;;;;;;15.70;14.10;;;;;;;16.18;84.05;99555.31;1701473;83;21596;-69
2021/05/29 04:18:52;;;;;;;15.18;13.65;;;;;;;16.25;84.11;99560.27;1701258;84;21473;-69
2021/05/29 04:21:19;;;;;;;14.80;12.43;;;;;;;16.30;84.07;99558.70;1701348;84;20975;-69
2021/05/29 04:23:46;;;;;;;13.65;12.25;;;;;;;16.37;84.10;99553.50;1699429;84;21745;-69
2021/05/29 04:26:14;;;;;;;22.62;20.20;;;;;;;16.39;84.06;99551.48;1701775;83;20976;-69
2021/05/29 04:28:41;;;;;;;15.45;14.03;;;;;;;16.43;84.11;99550.13;1721964;83;20984;-69
2021/05/29 04:31:07;;;;;;;14.87;13.13;;;;;;;16.50;84.12;99546.22;1710894;83;21568;-70
2021/05/29 04:33:35;;;;;;;12.37;11.18;;;;;;;16.56;84.00;99550.84;1673313;83;21105;-74
2021/05/29 04:36:01;;;;;;;13.22;11.93;;;;;;;16.57;83.93;99554.66;1674846;84;21754;-69
2021/05/29 04:38:28;;;;;;;13.93;12.05;;;;;;;16.60;83.85;99556.98;1703835;82;21074;-69
2021/05/29 04:40:54;;;;;;;14.13;12.75;;;;;;;16.65;83.80;99558.27;1701398;84;21569;-69
2021/05/29 04:43:22;;;;;;;13.32;11.65;;;;;;;16.70;83.72;99556.76;1701753;83;21011;-69
2021/05/29 04:45:48;;;;;;;12.82;11.53;;;;;;;16.73;83.57;99552.89;1701859;83;21030;-69
2021/05/29 04:48:17;;;;;;;17.17;15.58;;;;;;;16.77;83.53;99556.33;1690853;83;21781;-70
2021/05/29 04:53:29;;;;;;;23.52;21.23;;;;;;;16.85;83.26;99552.77;1709065;83;21047;-69
2021/05/29 04:55:57;;;;;;;15.10;13.50;;;;;;;16.92;83.19;99551.03;1718817;82;21222;-69
2021/05/29 04:58:24;;;;;;;12.00;10.80;;;;;;;16.96;83.17;99548.31;1706351;82;20966;-69
2021/05/29 05:00:51;;;;;;;11.35;9.45;;;;;;;16.99;82.91;99544.47;1701280;81;21766;-69
2021/05/29 05:03:18;;;;;;;13.85;12.43;;;;;;;17.00;82.61;99540.28;1707079;83;21074;-69
2021/05/29 05:05:45;;;;;;;19.10;17.40;;;;;;;16.95;82.24;99538.66;1686021;82;21063;-69
2021/05/29 05:08:11;;;;;;;13.32;12.03;;;;;;;16.92;82.20;99540.36;1670816;85;21019;-69
2021/05/29 05:10:38;;;;;;;9.95;8.78;;;;;;;16.95;82.26;99541.83;1696995;84;21051;-69
2021/05/29 05:13:04;;;;;;;10.18;8.40;;;;;;;16.99;82.18;99541.80;1699057;84;21754;-69
2021/05/29 05:15:33;;;;;;;11.45;7.15;;;;;;;17.01;82.12;99539.27;1698897;84;20971;-69
2021/05/29 05:18:00;;;;;;;9.28;7.50;;;;;;;17.03;82.05;99546.58;1698868;82;20983;-69
2021/05/29 05:20:27;;;;;;;7.47;6.78;;;;;;;17.03;81.90;99551.91;1702341;82;21082;-69
2021/05/29 05:22:53;;;;;;;8.10;7.30;;;;;;;17.00;81.68;99558.95;1702043;82;21006;-69
2021/05/29 05:25:19;;;;;;;7.95;6.67;;;;;;;16.96;81.71;99562.98;1724221;82;22424;-70
2021/05/29 05:27:46;;;;;;;8.03;7.20;;;;;;;16.99;81.68;99567.15;1699049;84;21071;-69
2021/05/29 05:30:15;;;;;;;7.60;6.80;;;;;;;16.99;81.63;99570.64;1698307;82;20983;-69
2021/05/29 05:32:42;;;;;;;7.12;6.42;;;;;;;17.03;81.55;99579.92;1699465;83;21032;-69
2021/05/29 05:35:13;;;;;;;8.13;6.20;;;;;;;17.02;81.28;99579.60;1699295;83;21027;-69
2021/05/29 05:37:38;;;;;;;6.55;5.85;;;;;;;17.03;81.30;99583.09;1696581;82;21801;-69
2021/05/29 05:40:08;;;;;;;8.98;5.97;;;;;;;17.05;81.18;99581.89;1697581;82;21598;-69
2021/05/29 05:42:34;;;;;;;8.73;6.83;;;;;;;17.06;81.00;99580.05;1699361;83;21542;-69
2021/05/29 05:45:04;;;;;;;8.43;6.60;;;;;;;17.09;81.06;99576.53;1687024;83;21024;-69
2021/05/29 05:47:30;;;;;;;7.75;6.35;;;;;;;17.13;81.09;99577.81;1711831;83;21006;-69
2021/05/29 05:49:57;;;;;;;8.00;6.25;;;;;;;17.15;80.93;99577.12;1677381;83;21746;-69
2021/05/29 05:52:23;;;;;;;7.47;6.22;;;;;;;17.20;80.93;99575.75;1676464;82;21014;-70
2021/05/29 05:54:50;;;;;;;6.85;5.90;;;;;;;17.26;80.88;99581.16;1701541;82;21039;-69
2021/05/29 05:57:16;;;;;;;9.90;6.33;;;;;;;17.31;80.77;99580.63;1650408;83;21133;-69
2021/05/29 05:59:44;;;;;;;6.80;5.70;;;;;;;17.34;80.53;99582.92;1699086;83;21521;-69
2021/05/29 06:02:11;;;;;;;6.85;5.90;;;;;;;17.33;80.47;99582.60;1669007;83;21755;-69
2021/05/29 06:04:37;;;;;;;8.43;6.00;;;;;;;17.38;80.44;99585.56;1673558;83;21050;-69
2021/05/29 06:07:04;;;;;;;6.12;5.47;;;;;;;17.38;80.13;99593.06;1672998;85;20967;-69
2021/05/29 06:09:31;;;;;;;6.97;6.03;;;;;;;17.36;79.87;99594.23;1669273;83;21098;-69
2021/05/29 06:11:58;;;;;;;7.35;5.70;;;;;;;17.35;79.88;99596.58;1650859;86;21047;-69
2021/05/29 06:19:57;;;;;;;6.35;5.80;;;;;;;17.33;79.59;99606.11;1649797;87;21047;-70
2021/05/29 06:22:23;;;;;;;7.85;5.72;;;;;;;17.29;79.55;99606.68;1632439;87;21023;-69
2021/05/29 06:24:50;;;;;;;7.03;5.80;;;;;;;17.27;79.66;99608.68;1628366;85;21525;-70
2021/05/29 06:27:16;;;;;;;13.05;6.40;;;;;;;17.26;79.83;99602.52;1684574;84;21746;-69
2021/05/29 06:29:43;;;;;;;12.03;6.33;;;;;;;17.28;79.82;99603.69;1691825;84;21102;-68
2021/05/29 06:32:12;;;;;;;7.22;6.22;;;;;;;17.31;79.92;99606.81;1696072;83;21031;-69
2021/05/29 06:34:38;;;;;;;9.18;6.03;;;;;;;17.35;79.96;99603.25;1676241;83;21046;-68
2021/05/29 06:37:05;;;;;;;6.83;5.58;;;;;;;17.40;79.96;99599.03;1702813;83;21029;-68
2021/05/29 06:39:33;;;;;;;9.33;6.22;;;;;;;17.42;79.99;99609.02;1685101;84;22185;-68
2021/05/29 06:42:00;;;;;;;7.42;5.62;;;;;;;17.43;79.88;99616.52;1699100;82;21047;-68
2021/05/29 06:44:27;;;;;;;7.58;5.72;;;;;;;17.46;79.88;99616.14;1712113;83;21054;-70
2021/05/29 06:46:53;;;;;;;6.45;5.85;;;;;;;17.49;79.96;99617.12;1694157;83;21086;-68
2021/05/29 06:49:20;;;;;;;8.08;6.35;;;;;;;17.51;79.94;99615.09;1680772;83;21007;-68
2021/05/29 06:51:56;;;;;;;9.00;5.92;;;;;;;17.52;80.03;99615.92;1696545;84;21739;-68
2021/05/29 06:59:34;;;;;;;7.17;6.05;;;;;;;17.57;79.94;99610.86;1699545;83;20987;-68
2021/05/29 07:02:01;;;;;;;7.42;6.65;;;;;;;17.59;80.04;99614.17;1701247;84;21023;-68
2021/05/29 07:04:27;;;;;;;8.78;6.50;;;;;;;17.65;80.14;99617.42;1701156;83;21744;-68
2021/05/29 07:06:56;;;;;;;7.75;5.65;;;;;;;17.70;80.19;99617.73;1701212;83;21067;-68
2021/05/29 07:09:23;;;;;;;8.50;5.90;;;;;;;17.73;80.14;99618.18;1701357;84;20987;-68
2021/05/29 07:11:49;;;;;;;6.70;5.80;;;;;;;17.72;79.79;99616.52;1697806;83;21131;-69
2021/05/29 07:14:16;;;;;;;7.50;5.87;;;;;;;17.71;79.60;99616.20;1687257;83;21058;-69
2021/05/29 07:16:45;;;;;;;8.98;6.47;;;;;;;17.73;79.64;99613.34;1671705;85;20978;-69
2021/05/29 07:19:12;;;;;;;6.33;5.72;;;;;;;17.73;79.74;99622.19;1673166;85;20990;-68
2021/05/29 07:21:39;;;;;;;7.70;5.78;;;;;;;17.78;79.68;99618.97;1674597;83;21042;-68
2021/05/29 07:24:06;;;;;;;6.85;5.70;;;;;;;17.82;79.47;99618.08;1673969;83;21644;-69
2021/05/29 07:26:34;;;;;;;6.92;5.37;;;;;;;17.86;79.43;99617.53;1713961;83;21042;-69
2021/05/29 07:29:00;;;;;;;7.10;6.35;;;;;;;17.91;79.39;99616.95;1704527;82;21780;-68
2021/05/29 07:31:27;;;;;;;8.38;5.40;;;;;;;17.88;79.19;99620.02;1700118;83;21099;-68
2021/05/29 07:33:55;;;;;;;6.80;6.03;;;;;;;17.87;79.22;99623.20;1693648;84;21021;-68
2021/05/29 07:36:22;;;;;;;7.10;5.78;;;;;;;17.86;79.25;99629.55;1673192;84;21023;-68
2021/05/29 07:38:50;;;;;;;6.37;5.78;;;;;;;17.87;79.02;99628.53;1678443;82;21046;-68
2021/05/29 07:41:16;;;;;;;7.28;5.78;;;;;;;17.81;78.83;99625.27;1676286;85;21830;-69
2021/05/29 07:43:43;;;;;;;6.37;5.78;;;;;;;17.76;78.82;99626.34;1691938;83;20994;-68
2021/05/29 07:46:10;;;;;;;6.45;5.85;;;;;;;17.73;78.78;99636.05;1673220;85;20983;-68
2021/05/29 07:48:38;;;;;;;6.20;5.60;;;;;;;17.77;78.98;99623.17;1672991;84;21058;-68
2021/05/29 07:51:05;;;;;;;5.85;5.33;;;;;;;17.88;79.06;99625.36;1686451;83;20972;-68
2021/05/29 07:53:34;;;;;;;5.78;5.28;;;;;;;17.94;79.12;99627.26;1697867;83;22325;-69
2021/05/29 07:56:03;;;;;;;7.17;5.90;;;;;;;17.98;78.98;99622.70;1708703;83;21006;-68
2021/05/29 07:58:30;;;;;;;8.68;6.03;;;;;;;18.07;78.79;99619.92;1725117;83;20967;-69
2021/05/29 08:00:57;;;;;;;6.25;5.65;;;;;;;18.13;78.81;99623.98;1728253;83;21107;-69
2021/05/29 08:03:26;;;;;;;6.00;5.40;;;;;;;18.19;78.49;99627.77;1715547;83;21007;-69
2021/05/29 08:05:54;;;;;;;6.35;5.53;;;;;;;18.24;78.25;99622.69;1728098;83;21762;-69
2021/05/29 08:08:22;;;;;;;7.20;5.60;;;;;;;18.35;78.20;99622.70;1713358;83;20979;-69
2021/05/29 08:10:49;;;;;;;6.75;5.72;;;;;;;18.44;78.05;99623.72;1690504;84;21034;-69
2021/05/29 08:13:20;;;;;;;6.20;5.60;;;;;;;18.55;77.76;99618.37;1676252;84;21649;-69
2021/05/29 08:15:47;;;;;;;8.53;5.58;;;;;;;18.67;77.83;99625.39;1697636;83;21063;-69
2021/05/29 08:18:19;;;;;;;5.72;5.08;;;;;;;18.74;77.14;99627.11;1694509;83;21849;-72
2021/05/29 08:20:45;;;;;;;7.83;5.62;;;;;;;18.85;76.89;99619.06;1702137;83;21087;-69
2021/05/29 08:23:12;;;;;;;5.97;5.35;;;;;;;19.02;76.97;99623.63;1727667;82;20976;-69
2021/05/29 08:25:39;;;;;;;6.20;5.60;;;;;;;19.14;76.25;99621.55;1692803;83;21073;-69
2021/05/29 08:28:05;;;;;;;6.87;6.10;;;;;;;19.20;75.52;99613.23;1698755;83;21070;-69
2021/05/29 08:30:32;;;;;;;6.90;5.83;;;;;;;19.30;75.35;99617.75;1626328;86;21799;-69
2021/05/29 08:32:59;;;;;;;7.03;5.50;;;;;;;19.35;73.92;99607.78;1624019;88;21082;-69
2021/05/29 08:35:25;;;;;;;7.03;5.70;;;;;;;19.38;73.88;99604.69;1629812;87;21119;-69
2021/05/29 08:37:52;;;;;;;6.60;5.72;;;;;;;19.49;74.00;99610.00;1651011;85;21055;-72
2021/05/29 08:40:19;;;;;;;6.70;6.05;;;;;;;19.60;73.46;99608.16;1624467;87;21585;-69
2021/05/29 08:42:46;;;;;;;6.85;5.97;;;;;;;19.64;73.07;99610.74;1648815;85;21779;-69
2021/05/29 08:45:15;;;;;;;8.93;6.40;;;;;;;19.61;72.29;99603.11;1650699;87;21000;-69
2021/05/29 08:47:42;;;;;;;8.85;5.55;;;;;;;19.59;72.30;99606.00;1648298;85;21094;-69
2021/05/29 08:50:10;;;;;;;7.45;5.85;;;;;;;19.59;72.32;99607.34;1649329;85;21094;-69
2021/05/29 08:52:37;;;;;;;7.28;6.55;;;;;;;19.55;72.27;99610.56;1666214;84;21102;-69
2021/05/29 08:55:08;;;;;;;7.55;6.67;;;;;;;19.43;72.26;99607.11;1665524;84;21082;-69
2021/05/29 08:57:36;;;;;;;8.78;6.78;;;;;;;19.30;71.97;99605.70;1662600;84;20984;-69
2021/05/29 09:00:07;;;;;;;8.30;7.40;;;;;;;19.14;72.16;99608.68;1668460;83;21510;-69
2021/05/29 09:02:34;;;;;;;9.00;8.10;;;;;;;19.05;72.57;99612.53;1665634;84;21011;-69
2021/05/29 09:05:08;;;;;;;10.75;9.33;;;;;;;19.07;73.03;99608.62;1683386;84;20981;-69
2021/05/29 09:07:35;;;;;;;10.55;9.53;;;;;;;19.14;73.06;99612.19;1690124;83;21780;-69
2021/05/29 09:10:22;;;;;;;10.32;9.40;;;;;;;19.23;73.13;99611.52;1663822;84;21024;-68
2021/05/29 09:13:08;;;;;;;10.80;9.80;;;;;;;19.35;73.00;99613.13;1717478;83;21566;-68
2021/05/29 09:15:55;;;;;;;10.18;9.18;;;;;;;19.40;72.13;99606.17;1720833;83;20984;-69
2021/05/29 09:18:34;;;;;;;10.80;9.30;;;;;;;19.53;72.60;99605.92;1708429;83;21004;-69
2021/05/29 09:21:29;;;;;;;9.83;8.93;;;;;;;19.76;72.26;99593.58;1671651;84;22378;-69
2021/05/29 09:24:17;;;;;;;8.90;8.10;;;;;;;20.10;72.21;99592.67;1665454;84;21075;-69
2021/05/29 09:26:54;;;;;;;9.68;7.95;;;;;;;20.41;70.00;99588.91;1691236;83;20983;-69
2021/05/29 09:29:30;;;;;;;11.30;8.90;;;;;;;20.46;67.28;99588.31;1689583;83;21103;-69
2021/05/29 09:32:06;;;;;;;9.98;8.80;;;;;;;20.39;67.37;99590.16;1691756;84;21043;-69
2021/05/29 09:34:47;;;;;;;9.40;7.97;;;;;;;20.41;67.86;99587.56;1672017;84;21768;-70
2021/05/29 09:37:16;;;;;;;8.20;7.35;;;;;;;20.52;67.22;99592.35;1681474;84;21007;-70
2021/05/29 09:39:51;;;;;;;8.08;7.05;;;;;;;20.58;65.54;99582.16;1687619;83;20984;-70
2021/05/29 09:42:18;;;;;;;6.70;6.10;;;;;;;20.73;65.65;99584.62;1691807;84;21111;-69
2021/05/29 09:44:45;;;;;;;6.72;6.12;;;;;;;20.81;63.31;99579.56;1711420;83;20980;-69
2021/05/29 09:47:17;;;;;;;11.08;7.72;;;;;;;20.85;63.26;99589.69;1720625;83;21773;-69
2021/05/29 09:49:56;;;;;;;10.25;8.40;;;;;;;21.02;64.61;99571.79;1693767;83;20984;-70
2021/05/29 09:52:40;;;;;;;9.13;8.33;;;;;;;21.30;65.50;99571.05;1690537;84;21214;-70
2021/05/29 09:55:11;;;;;;;9.48;8.10;;;;;;;21.46;64.18;99566.25;1672604;84;21599;-69
2021/05/29 09:57:56;;;;;;;10.03;9.03;;;;;;;21.53;62.84;99565.20;1679741;83;21098;-70
2021/05/29 10:00:25;;;;;;;11.48;9.28;;;;;;;21.66;63.01;99565.14;1701067;83;21881;-70
2021/05/29 10:03:02;;;;;;;11.22;10.00;;;;;;;21.91;62.81;99566.58;1701612;83;20968;-70
2021/05/29 10:05:30;;;;;;;10.23;8.73;;;;;;;22.16;62.52;99576.07;1722761;83;21016;-70
2021/05/29 10:07:59;;;;;;;10.88;9.53;;;;;;;22.23;60.83;99576.03;1712010;83;21122;-70
2021/05/29 10:10:26;;;;;;;10.35;9.33;;;;;;;22.35;61.21;99576.98;1666795;84;21027;-70
2021/05/29 10:12:54;;;;;;;11.75;9.98;;;;;;;22.54;60.98;99567.94;1693717;84;21526;-71
2021/05/29 10:15:21;;;;;;;10.95;9.80;;;;;;;22.56;59.07;99563.16;1691951;84;21591;-70
2021/05/29 10:17:48;;;;;;;11.20;10.10;;;;;;;22.60;59.80;99560.05;1687103;83;21063;-69
2021/05/29 10:20:15;;;;;;;10.75;9.65;;;;;;;22.75;58.79;99557.83;1665860;86;21015;-70
2021/05/29 10:22:45;;;;;;;9.68;8.73;;;;;;;22.85;58.03;99556.83;1665940;85;21032;-70
2021/05/29 10:25:14;;;;;;;9.70;8.80;;;;;;;22.96;58.11;99551.23;1652765;84;21713;-69
2021/05/29 10:27:52;;;;;;;9.08;8.00;;;;;;;23.11;56.72;99555.23;1684750;83;21074;-69
2021/05/29 10:30:24;;;;;;;8.03;7.22;;;;;;;23.08;55.47;99548.95;1669240;83;21067;-69
2021/05/29 10:33:16;;;;;;;7.97;7.17;;;;;;;23.03;54.64;99552.83;1665793;85;21563;-69
2021/05/29 10:35:44;;;;;;;7.37;6.67;;;;;;;23.01;54.89;99553.58;1665881;85;21474;-70
2021/05/29 10:38:12;;;;;;;8.95;6.92;;;;;;;23.11;55.98;99550.38;1671929;83;21792;-69
2021/05/29 10:40:49;;;;;;;7.53;6.17;;;;;;;23.28;55.60;99550.09;1693917;84;21055;-70
2021/05/29 10:43:19;;;;;;;6.17;5.58;;;;;;;23.46;55.01;99548.45;1717971;82;21043;-69
2021/05/29 10:45:58;;;;;;;7.08;6.40;;;;;;;23.62;54.22;99541.92;1687765;83;21066;-69
2021/05/29 10:48:27;;;;;;;6.65;5.95;;;;;;;23.83;54.55;99550.04;1690496;83;20986;-70
2021/05/29 10:51:12;;;;;;;6.62;5.92;;;;;;;24.01;52.59;99552.41;1693924;84;22532;-69
2021/05/29 10:53:53;;;;;;;7.67;5.95;;;;;;;24.04;51.82;99545.22;1692935;83;21596;-69
2021/05/29 10:56:26;;;;;;;8.50;5.60;;;;;;;24.10;52.39;99555.08;1710589;83;21580;-69
2021/05/29 10:59:17;;;;;;;7.15;6.35;;;;;;;24.06;51.26;99554.72;1703258;83;21524;-69
2021/05/29 11:01:50;;;;;;;9.75;8.75;;;;;;;23.90;51.40;99552.13;1687043;84;21082;-69
2021/05/29 11:04:24;;;;;;;11.05;10.00;;;;;;;23.66;51.58;99553.09;1716296;83;21797;-68
2021/05/29 11:07:19;;;;;;;10.70;9.70;;;;;;;23.36;53.67;99563.80;1720864;83;21004;-69
2021/05/29 11:09:52;;;;;;;11.73;10.08;;;;;;;23.09;55.10;99571.33;1691289;83;21525;-68
2021/05/29 11:12:18;;;;;;;9.58;8.58;;;;;;;22.71;57.21;99572.78;1692004;83;21248;-70
2021/05/29 11:14:55;;;;;;;11.80;9.55;;;;;;;22.36;57.65;99571.90;1692967;83;20979;-69
2021/05/29 11:17:25;;;;;;;10.55;9.13;;;;;;;21.97;58.63;99571.08;1694571;83;21862;-70
2021/05/29 11:20:20;;;;;;;9.60;8.60;;;;;;;21.75;60.04;99560.87;1704512;83;21071;-69
2021/05/29 11:22:50;;;;;;;9.68;7.85;;;;;;;21.59;59.78;99564.84;1720687;83;21541;-69
2021/05/29 11:25:20;;;;;;;8.15;7.33;;;;;;;21.42;60.34;99572.55;1720834;83;21083;-69
2021/05/29 11:27:48;;;;;;;8.05;7.20;;;;;;;21.31;60.74;99565.97;1678055;83;21071;-70
2021/05/29 11:30:33;;;;;;;7.45;5.78;;;;;;;21.22;61.18;99576.60;1692036;83;22413;-69
2021/05/29 11:33:02;;;;;;;6.97;5.92;;;;;;;21.28;61.40;99571.77;1691931;83;21071;-69
2021/05/29 11:35:51;;;;;;;6.50;5.62;;;;;;;21.32;60.37;99565.45;1690240;84;21031;-70
2021/05/29 11:38:20;;;;;;;7.08;5.35;;;;;;;21.32;60.37;99565.45;1675240;83;21011;-69
2021/05/29 11:40:57;;;;;;;5.70;5.10;;;;;;;21.37;60.07;99573.72;1692169;84;20999;-69
2021/05/29 11:43:43;;;;;;;5.40;4.90;;;;;;;21.40;60.43;99568.73;1692004;84;21773;-69
2021/05/29 11:46:21;;;;;;;5.22;4.47;;;;;;;21.42;60.65;99571.20;1691991;83;21473;-70
2021/05/29 11:49:04;;;;;;;6.00;4.30;;;;;;;21.43;60.89;99564.30;1658187;83;21047;-69
2021/05/29 11:51:36;;;;;;;5.72;4.12;;;;;;;21.40;60.26;99567.39;1655893;86;21055;-69